sensor_id;sensor_type;location;lat;lon;timestamp;pressure;altitude;pressure_sealevel;temperature;humidity
60871;BME280;46714;50.118;14.462;2023-10-19T00:01:57;97888.59;;;4.61;91.39
60871;BME280;46714;50.118;14.462;2023-10-19T00:04:26;97880.50;;;4.61;91.60
60871;BME280;46714;50.118;14.462;2023-10-19T00:06:56;97875.31;;;4.59;91.38
60871;BME280;46714;50.118;14.462;2023-10-19T00:09:22;97862.03;;;4.58;91.79
60871;BME280;46714;50.118;14.462;2023-10-19T00:11:47;97851.25;;;4.58;91.63
60871;BME280;46714;50.118;14.462;2023-10-19T00:14:16;97841.53;;;4.57;91.92
60871;BME280;46714;50.118;14.462;2023-10-19T00:16:45;97845.66;;;4.59;92.08
60871;BME280;46714;50.118;14.462;2023-10-19T00:19:16;97847.94;;;4.62;91.88
60871;BME280;46714;50.118;14.462;2023-10-19T00:21:45;97836.13;;;4.64;91.54
60871;BME280;46714;50.118;14.462;2023-10-19T00:24:19;97829.28;;;4.68;91.84
60871;BME280;46714;50.118;14.462;2023-10-19T00:26:47;97822.41;;;4.72;91.58
60871;BME280;46714;50.118;14.462;2023-10-19T00:29:20;97826.59;;;4.74;91.24
60871;BME280;46714;50.118;14.462;2023-10-19T00:32:04;97835.88;;;4.78;91.38
60871;BME280;46714;50.118;14.462;2023-10-19T00:34:31;97848.97;;;4.81;91.12
60871;BME280;46714;50.118;14.462;2023-10-19T00:36:57;97855.59;;;4.86;91.19
60871;BME280;46714;50.118;14.462;2023-10-19T00:39:24;97847.69;;;4.91;91.35
60871;BME280;46714;50.118;14.462;2023-10-19T00:41:52;97844.56;;;4.94;90.82
60871;BME280;46714;50.118;14.462;2023-10-19T00:44:20;97837.94;;;4.96;91.13
60871;BME280;46714;50.118;14.462;2023-10-19T00:47:01;97829.63;;;4.98;90.64
60871;BME280;46714;50.118;14.462;2023-10-19T00:49:36;97833.78;;;5.00;90.59
60871;BME280;46714;50.118;14.462;2023-10-19T00:52:03;97819.03;;;5.03;91.00
60871;BME280;46714;50.118;14.462;2023-10-19T00:54:38;97816.13;;;5.04;91.00
60871;BME280;46714;50.118;14.462;2023-10-19T00:57:17;97824.22;;;5.04;90.57
60871;BME280;46714;50.118;14.462;2023-10-19T00:59:58;97822.16;;;5.07;90.53
60871;BME280;46714;50.118;14.462;2023-10-19T01:02:37;97821.09;;;5.08;90.78
60871;BME280;46714;50.118;14.462;2023-10-19T01:05:11;97823.59;;;5.09;91.10
60871;BME280;46714;50.118;14.462;2023-10-19T01:07:40;97817.13;;;5.10;90.91
60871;BME280;46714;50.118;14.462;2023-10-19T01:10:06;97815.06;;;5.12;91.05
60871;BME280;46714;50.118;14.462;2023-10-19T01:12:45;97805.09;;;5.13;90.80
60871;BME280;46714;50.118;14.462;2023-10-19T01:15:12;97804.88;;;5.14;91.15
60871;BME280;46714;50.118;14.462;2023-10-19T01:17:53;97801.38;;;5.14;90.64
60871;BME280;46714;50.118;14.462;2023-10-19T01:20:29;97802.19;;;5.14;90.89
60871;BME280;46714;50.118;14.462;2023-10-19T01:23:03;97797.63;;;5.15;90.59
60871;BME280;46714;50.118;14.462;2023-10-19T01:28:07;97782.66;;;5.19;90.58
60871;BME280;46714;50.118;14.462;2023-10-19T01:30:35;97778.91;;;5.20;91.07
60871;BME280;46714;50.118;14.462;2023-10-19T01:33:03;97777.69;;;5.22;92.00
60871;BME280;46714;50.118;14.462;2023-10-19T01:35:29;97777.69;;;5.22;91.33
60871;BME280;46714;50.118;14.462;2023-10-19T01:38:15;97782.84;;;5.24;92.68
60871;BME280;46714;50.118;14.462;2023-10-19T01:40:40;97790.53;;;5.27;92.83
60871;BME280;46714;50.118;14.462;2023-10-19T01:43:11;97784.69;;;5.30;92.58
60871;BME280;46714;50.118;14.462;2023-10-19T01:45:45;97788.00;;;5.32;92.18
60871;BME280;46714;50.118;14.462;2023-10-19T01:48:11;97786.75;;;5.35;92.46
60871;BME280;46714;50.118;14.462;2023-10-19T01:50:38;97793.56;;;5.37;92.18
60871;BME280;46714;50.118;14.462;2023-10-19T01:53:07;97791.09;;;5.36;91.74
60871;BME280;46714;50.118;14.462;2023-10-19T01:55:42;97795.44;;;5.37;91.64
60871;BME280;46714;50.118;14.462;2023-10-19T01:58:08;97798.16;;;5.37;90.98
60871;BME280;46714;50.118;14.462;2023-10-19T02:00:34;97786.31;;;5.38;90.97
60871;BME280;46714;50.118;14.462;2023-10-19T02:03:05;97784.22;;;5.40;91.18
60871;BME280;46714;50.118;14.462;2023-10-19T02:05:32;97777.56;;;5.42;91.37
60871;BME280;46714;50.118;14.462;2023-10-19T02:08:04;97773.00;;;5.43;90.47
60871;BME280;46714;50.118;14.462;2023-10-19T02:10:32;97756.22;;;5.41;90.33
60871;BME280;46714;50.118;14.462;2023-10-19T02:12:59;97765.34;;;5.40;90.25
60871;BME280;46714;50.118;14.462;2023-10-19T02:15:24;97758.06;;;5.40;90.30
60871;BME280;46714;50.118;14.462;2023-10-19T02:17:49;97752.91;;;5.39;90.16
60871;BME280;46714;50.118;14.462;2023-10-19T02:20:15;97738.78;;;5.37;89.95
60871;BME280;46714;50.118;14.462;2023-10-19T02:22:42;97744.19;;;5.37;90.06
60871;BME280;46714;50.118;14.462;2023-10-19T02:25:08;97730.28;;;5.33;90.19
60871;BME280;46714;50.118;14.462;2023-10-19T02:27:35;97714.53;;;5.30;90.35
60871;BME280;46714;50.118;14.462;2023-10-19T02:30:01;97712.06;;;5.29;90.34
60871;BME280;46714;50.118;14.462;2023-10-19T02:32:27;97699.63;;;5.28;90.57
60871;BME280;46714;50.118;14.462;2023-10-19T02:34:52;97682.81;;;5.25;90.82
60871;BME280;46714;50.118;14.462;2023-10-19T02:37:18;97654.41;;;5.23;91.11
60871;BME280;46714;50.118;14.462;2023-10-19T02:39:43;97640.94;;;5.23;91.56
60871;BME280;46714;50.118;14.462;2023-10-19T02:42:09;97632.84;;;5.23;91.77
60871;BME280;46714;50.118;14.462;2023-10-19T02:44:34;97588.19;;;5.27;91.74
60871;BME280;46714;50.118;14.462;2023-10-19T02:46:59;97559.34;;;5.28;92.01
60871;BME280;46714;50.118;14.462;2023-10-19T02:49:30;97636.31;;;5.30;92.46
60871;BME280;46714;50.118;14.462;2023-10-19T02:51:56;97650.19;;;5.34;92.49
60871;BME280;46714;50.118;14.462;2023-10-19T02:54:27;97655.97;;;5.37;93.01
60871;BME280;46714;50.118;14.462;2023-10-19T02:56:57;97671.72;;;5.40;93.41
60871;BME280;46714;50.118;14.462;2023-10-19T02:59:24;97665.06;;;5.43;93.38
60871;BME280;46714;50.118;14.462;2023-10-19T03:01:54;97654.66;;;5.46;92.75
60871;BME280;46714;50.118;14.462;2023-10-19T03:04:36;97641.56;;;5.50;93.42
60871;BME280;46714;50.118;14.462;2023-10-19T03:07:02;97640.50;;;5.51;92.93
60871;BME280;46714;50.118;14.462;2023-10-19T03:09:29;97637.59;;;5.53;93.37
60871;BME280;46714;50.118;14.462;2023-10-19T03:11:55;97637.13;;;5.56;93.44
60871;BME280;46714;50.118;14.462;2023-10-19T03:14:25;97642.94;;;5.59;94.89
60871;BME280;46714;50.118;14.462;2023-10-19T03:16:51;97631.75;;;5.56;94.38
60871;BME280;46714;50.118;14.462;2023-10-19T03:19:19;97626.13;;;5.57;94.85
60871;BME280;46714;50.118;14.462;2023-10-19T03:21:45;97616.16;;;5.58;95.32
60871;BME280;46714;50.118;14.462;2023-10-19T03:24:17;97601.03;;;5.57;94.64
60871;BME280;46714;50.118;14.462;2023-10-19T03:27:07;97595.44;;;5.52;94.59
60871;BME280;46714;50.118;14.462;2023-10-19T03:29:46;97598.13;;;5.52;96.25
60871;BME280;46714;50.118;14.462;2023-10-19T03:32:24;97595.44;;;5.52;95.59
60871;BME280;46714;50.118;14.462;2023-10-19T03:34:57;97597.31;;;5.51;96.54
60871;BME280;46714;50.118;14.462;2023-10-19T03:37:25;97580.53;;;5.49;95.99
60871;BME280;46714;50.118;14.462;2023-10-19T03:39:53;97586.75;;;5.50;96.67
60871;BME280;46714;50.118;14.462;2023-10-19T03:42:21;97575.94;;;5.50;97.34
60871;BME280;46714;50.118;14.462;2023-10-19T03:44:50;97583.47;;;5.48;97.29
60871;BME280;46714;50.118;14.462;2023-10-19T03:47:18;97566.66;;;5.45;98.64
60871;BME280;46714;50.118;14.462;2023-10-19T03:49:48;97557.56;;;5.40;98.31
60871;BME280;46714;50.118;14.462;2023-10-19T03:52:16;97565.28;;;5.36;98.68
60871;BME280;46714;50.118;14.462;2023-10-19T03:54:41;97552.22;;;5.33;100.00
60871;BME280;46714;50.118;14.462;2023-10-19T03:57:16;97556.19;;;5.31;100.00
60871;BME280;46714;50.118;14.462;2023-10-19T03:59:50;97544.03;;;5.21;99.69
60871;BME280;46714;50.118;14.462;2023-10-19T04:02:23;97541.19;;;5.16;100.00
60871;BME280;46714;50.118;14.462;2023-10-19T04:04:49;97539.13;;;5.12;100.00
60871;BME280;46714;50.118;14.462;2023-10-19T04:07:17;97545.56;;;5.11;100.00
60871;BME280;46714;50.118;14.462;2023-10-19T04:09:46;97544.97;;;5.09;100.00
60871;BME280;46714;50.118;14.462;2023-10-19T04:12:25;97553.88;;;5.09;100.00
60871;BME280;46714;50.118;14.462;2023-10-19T04:14:54;97552.00;;;5.10;100.00
60871;BME280;46714;50.118;14.462;2023-10-19T04:17:19;97548.72;;;5.08;100.00
60871;BME280;46714;50.118;14.462;2023-10-19T04:19:46;97543.97;;;5.03;100.00
60871;BME280;46714;50.118;14.462;2023-10-19T04:22:13;97546.47;;;5.04;100.00
60871;BME280;46714;50.118;14.462;2023-10-19T04:24:47;97543.31;;;5.08;100.00
60871;BME280;46714;50.118;14.462;2023-10-19T04:27:13;97530.66;;;5.08;100.00
60871;BME280;46714;50.118;14.462;2023-10-19T04:29:39;97540.41;;;5.09;100.00
60871;BME280;46714;50.118;14.462;2023-10-19T04:32:06;97544.97;;;5.09;100.00
60871;BME280;46714;50.118;14.462;2023-10-19T04:34:32;97544.75;;;5.10;100.00
60871;BME280;46714;50.118;14.462;2023-10-19T04:36:57;97543.09;;;5.09;100.00
60871;BME280;46714;50.118;14.462;2023-10-19T04:39:23;97531.25;;;5.10;100.00
60871;BME280;46714;50.118;14.462;2023-10-19T04:41:49;97532.06;;;5.11;100.00
60871;BME280;46714;50.118;14.462;2023-10-19T04:44:15;97521.28;;;5.11;100.00
60871;BME280;46714;50.118;14.462;2023-10-19T04:46:41;97521.91;;;5.13;100.00
60871;BME280;46714;50.118;14.462;2023-10-19T04:49:07;97513.59;;;5.14;100.00
60871;BME280;46714;50.118;14.462;2023-10-19T04:51:32;97511.72;;;5.15;100.00
60871;BME280;46714;50.118;14.462;2023-10-19T04:53:59;97511.50;;;5.16;100.00
60871;BME280;46714;50.118;14.462;2023-10-19T04:56:25;97513.75;;;5.19;100.00
60871;BME280;46714;50.118;14.462;2023-10-19T04:58:50;97507.09;;;5.22;100.00
60871;BME280;46714;50.118;14.462;2023-10-19T05:01:15;97513.09;;;5.24;100.00
60871;BME280;46714;50.118;14.462;2023-10-19T05:03:41;97507.28;;;5.27;100.00
60871;BME280;46714;50.118;14.462;2023-10-19T05:06:07;97502.03;;;5.32;100.00
60871;BME280;46714;50.118;14.462;2023-10-19T05:08:34;97502.38;;;5.36;100.00
60871;BME280;46714;50.118;14.462;2023-10-19T05:11:01;97491.84;;;5.34;100.00
60871;BME280;46714;50.118;14.462;2023-10-19T05:13:27;97490.16;;;5.33;100.00
60871;BME280;46714;50.118;14.462;2023-10-19T05:15:53;97490.16;;;5.33;100.00
60871;BME280;46714;50.118;14.462;2023-10-19T05:18:20;97491.84;;;5.34;100.00
60871;BME280;46714;50.118;14.462;2023-10-19T05:20:46;97504.50;;;5.34;100.00
60871;BME280;46714;50.118;14.462;2023-10-19T05:23:12;97506.97;;;5.35;100.00
60871;BME280;46714;50.118;14.462;2023-10-19T05:25:38;97508.63;;;5.36;100.00
60871;BME280;46714;50.118;14.462;2023-10-19T05:28:05;97498.44;;;5.38;100.00
60871;BME280;46714;50.118;14.462;2023-10-19T05:30:31;97496.31;;;5.40;100.00
60871;BME280;46714;50.118;14.462;2023-10-19T05:32:57;97485.31;;;5.42;100.00
60871;BME280;46714;50.118;14.462;2023-10-19T05:35:24;97481.59;;;5.43;100.00
60871;BME280;46714;50.118;14.462;2023-10-19T05:37:51;97484.03;;;5.44;100.00
60871;BME280;46714;50.118;14.462;2023-10-19T05:40:17;97490.03;;;5.46;100.00
60871;BME280;46714;50.118;14.462;2023-10-19T05:42:44;97492.53;;;5.48;100.00
60871;BME280;46714;50.118;14.462;2023-10-19T05:45:11;97480.66;;;5.49;100.00
60871;BME280;46714;50.118;14.462;2023-10-19T05:47:38;97475.06;;;5.51;100.00
60871;BME280;46714;50.118;14.462;2023-10-19T05:50:04;97460.28;;;5.53;100.00
60871;BME280;46714;50.118;14.462;2023-10-19T05:52:29;97478.97;;;5.55;100.00
60871;BME280;46714;50.118;14.462;2023-10-19T05:54:55;97471.47;;;5.57;100.00
60871;BME280;46714;50.118;14.462;2023-10-19T05:57:22;97465.84;;;5.58;100.00
60871;BME280;46714;50.118;14.462;2023-10-19T05:59:47;97460.22;;;5.60;100.00
60871;BME280;46714;50.118;14.462;2023-10-19T06:02:13;97451.06;;;5.61;100.00
60871;BME280;46714;50.118;14.462;2023-10-19T06:04:38;97451.66;;;5.63;100.00
60871;BME280;46714;50.118;14.462;2023-10-19T06:07:03;97444.75;;;5.67;100.00
60871;BME280;46714;50.118;14.462;2023-10-19T06:09:29;97441.38;;;5.72;100.00
60871;BME280;46714;50.118;14.462;2023-10-19T06:11:55;97445.50;;;5.74;100.00
60871;BME280;46714;50.118;14.462;2023-10-19T06:14:20;97453.19;;;5.77;100.00
60871;BME280;46714;50.118;14.462;2023-10-19T06:16:46;97456.69;;;5.78;100.00
60871;BME280;46714;50.118;14.462;2023-10-19T06:19:11;97453.53;;;5.81;100.00
60871;BME280;46714;50.118;14.462;2023-10-19T06:21:37;97444.16;;;5.83;100.00
60871;BME280;46714;50.118;14.462;2023-10-19T06:24:02;97443.13;;;5.84;100.00
60871;BME280;46714;50.118;14.462;2023-10-19T06:26:28;97446.63;;;5.85;100.00
60871;BME280;46714;50.118;14.462;2023-10-19T06:28:53;97446.41;;;5.86;100.00
60871;BME280;46714;50.118;14.462;2023-10-19T06:31:25;97435.84;;;5.85;100.00
60871;BME280;46714;50.118;14.462;2023-10-19T06:33:51;97440.16;;;5.86;100.00
60871;BME280;46714;50.118;14.462;2023-10-19T06:36:17;97451.81;;;5.86;100.00
60871;BME280;46714;50.118;14.462;2023-10-19T06:38:44;97438.31;;;5.86;100.00
60871;BME280;46714;50.118;14.462;2023-10-19T06:41:10;97439.94;;;5.87;100.00
60871;BME280;46714;50.118;14.462;2023-10-19T06:43:39;97452.63;;;5.87;100.00
60871;BME280;46714;50.118;14.462;2023-10-19T06:46:05;97455.09;;;5.88;100.00
60871;BME280;46714;50.118;14.462;2023-10-19T06:48:31;97453.22;;;5.89;100.00
60871;BME280;46714;50.118;14.462;2023-10-19T06:50:57;97465.88;;;5.88;100.00
60871;BME280;46714;50.118;14.462;2023-10-19T06:53:25;97478.13;;;5.91;100.00
60871;BME280;46714;50.118;14.462;2023-10-19T06:55:50;97480.41;;;5.94;100.00
60871;BME280;46714;50.118;14.462;2023-10-19T06:58:16;97467.25;;;5.98;100.00
60871;BME280;46714;50.118;14.462;2023-10-19T07:00:44;97474.31;;;5.99;100.00
60871;BME280;46714;50.118;14.462;2023-10-19T07:03:10;97466.81;;;6.01;100.00
60871;BME280;46714;50.118;14.462;2023-10-19T07:05:36;97460.94;;;6.04;100.00
60871;BME280;46714;50.118;14.462;2023-10-19T07:08:02;97465.91;;;6.07;100.00
60871;BME280;46714;50.118;14.462;2023-10-19T07:10:29;97460.06;;;6.10;100.00
60871;BME280;46714;50.118;14.462;2023-10-19T07:12:55;97452.97;;;6.09;100.00
60871;BME280;46714;50.118;14.462;2023-10-19T07:15:22;97451.13;;;6.10;100.00
60871;BME280;46714;50.118;14.462;2023-10-19T07:17:50;97447.38;;;6.11;100.00
60871;BME280;46714;50.118;14.462;2023-10-19T07:20:22;97446.06;;;6.13;100.00
60871;BME280;46714;50.118;14.462;2023-10-19T07:22:50;97449.59;;;6.14;100.00
60871;BME280;46714;50.118;14.462;2023-10-19T07:25:17;97457.47;;;6.15;100.00
60871;BME280;46714;50.118;14.462;2023-10-19T07:27:46;97458.69;;;6.19;100.00
60871;BME280;46714;50.118;14.462;2023-10-19T07:30:12;97449.88;;;6.24;100.00
60871;BME280;46714;50.118;14.462;2023-10-19T07:32:40;97444.84;;;6.27;100.00
60871;BME280;46714;50.118;14.462;2023-10-19T07:35:06;97439.81;;;6.31;100.00
60871;BME280;46714;50.118;14.462;2023-10-19T07:37:31;97431.91;;;6.29;100.00
60871;BME280;46714;50.118;14.462;2023-10-19T07:39:57;97420.88;;;6.31;100.00
60871;BME280;46714;50.118;14.462;2023-10-19T07:42:25;97419.72;;;6.39;100.00
60871;BME280;46714;50.118;14.462;2023-10-19T07:44:50;97406.00;;;6.40;100.00
60871;BME280;46714;50.118;14.462;2023-10-19T07:47:16;97409.88;;;6.44;100.00
60871;BME280;46714;50.118;14.462;2023-10-19T07:49:42;97417.53;;;6.47;100.00
60871;BME280;46714;50.118;14.462;2023-10-19T07:52:08;97422.72;;;6.49;100.00
60871;BME280;46714;50.118;14.462;2023-10-19T07:54:35;97441.41;;;6.50;100.00
60871;BME280;46714;50.118;14.462;2023-10-19T07:57:03;97441.16;;;6.52;100.00
60871;BME280;46714;50.118;14.462;2023-10-19T07:59:32;97436.94;;;6.56;100.00
60871;BME280;46714;50.118;14.462;2023-10-19T08:01:59;97447.28;;;6.59;100.00
60871;BME280;46714;50.118;14.462;2023-10-19T08:04:29;97447.75;;;6.56;100.00
60871;BME280;46714;50.118;14.462;2023-10-19T08:06:54;97453.16;;;6.56;100.00
60871;BME280;46714;50.118;14.462;2023-10-19T08:09:23;97438.00;;;6.55;100.00
60871;BME280;46714;50.118;14.462;2023-10-19T08:11:51;97450.94;;;6.53;100.00
60871;BME280;46714;50.118;14.462;2023-10-19T08:14:21;97453.03;;;6.51;100.00
60871;BME280;46714;50.118;14.462;2023-10-19T08:16:49;97446.22;;;6.48;100.00
60871;BME280;46714;50.118;14.462;2023-10-19T08:19:14;97439.16;;;6.47;100.00
60871;BME280;46714;50.118;14.462;2023-10-19T08:21:40;97436.22;;;6.49;100.00
60871;BME280;46714;50.118;14.462;2023-10-19T08:24:06;97435.16;;;6.50;100.00
60871;BME280;46714;50.118;14.462;2023-10-19T08:26:31;97430.13;;;6.54;100.00
60871;BME280;46714;50.118;14.462;2023-10-19T08:28:56;97425.06;;;6.57;100.00
60871;BME280;46714;50.118;14.462;2023-10-19T08:31:24;97413.19;;;6.58;100.00
60871;BME280;46714;50.118;14.462;2023-10-19T08:33:50;97420.13;;;6.66;100.00
60871;BME280;46714;50.118;14.462;2023-10-19T08:36:18;97415.69;;;6.71;100.00
60871;BME280;46714;50.118;14.462;2023-10-19T08:38:45;97419.13;;;6.79;100.00
60871;BME280;46714;50.118;14.462;2023-10-19T08:41:11;97417.59;;;6.83;100.00
60871;BME280;46714;50.118;14.462;2023-10-19T08:43:38;97400.41;;;6.89;100.00
60871;BME280;46714;50.118;14.462;2023-10-19T08:46:05;97408.88;;;6.92;100.00
60871;BME280;46714;50.118;14.462;2023-10-19T08:48:36;97405.13;;;6.93;100.00
60871;BME280;46714;50.118;14.462;2023-10-19T08:51:03;97402.41;;;6.93;100.00
60871;BME280;46714;50.118;14.462;2023-10-19T08:53:36;97398.19;;;6.98;100.00
60871;BME280;46714;50.118;14.462;2023-10-19T08:56:05;97398.06;;;7.04;100.00
60871;BME280;46714;50.118;14.462;2023-10-19T08:58:32;97401.69;;;7.10;100.00
60871;BME280;46714;50.118;14.462;2023-10-19T09:00:57;97379.59;;;7.13;100.00
60871;BME280;46714;50.118;14.462;2023-10-19T09:03:31;97385.34;;;7.17;100.00
60871;BME280;46714;50.118;14.462;2023-10-19T09:05:57;97390.88;;;7.22;100.00
60871;BME280;46714;50.118;14.462;2023-10-19T09:08:22;97400.75;;;7.28;100.00
60871;BME280;46714;50.118;14.462;2023-10-19T09:10:48;97417.13;;;7.33;100.00
60871;BME280;46714;50.118;14.462;2023-10-19T09:13:14;97422.16;;;7.29;100.00
60871;BME280;46714;50.118;14.462;2023-10-19T09:15:43;97412.66;;;7.27;100.00
60871;BME280;46714;50.118;14.462;2023-10-19T09:20:41;97405.44;;;7.32;100.00
60871;BME280;46714;50.118;14.462;2023-10-19T09:23:17;97401.44;;;7.35;100.00
60871;BME280;46714;50.118;14.462;2023-10-19T09:25:47;97411.56;;;7.40;100.00
60871;BME280;46714;50.118;14.462;2023-10-19T09:28:14;97402.72;;;7.44;100.00
60871;BME280;46714;50.118;14.462;2023-10-19T09:30:40;97383.31;;;7.47;100.00
60871;BME280;46714;50.118;14.462;2023-10-19T09:33:08;97381.19;;;7.49;100.00
60871;BME280;46714;50.118;14.462;2023-10-19T09:35:34;97380.59;;;7.47;100.00
60871;BME280;46714;50.118;14.462;2023-10-19T09:38:03;97385.63;;;7.55;100.00
60871;BME280;46714;50.118;14.462;2023-10-19T09:40:31;97379.50;;;7.60;100.00
60871;BME280;46714;50.118;14.462;2023-10-19T09:42:57;97374.94;;;7.61;100.00
60871;BME280;46714;50.118;14.462;2023-10-19T09:45:29;97385.84;;;7.66;100.00
60871;BME280;46714;50.118;14.462;2023-10-19T09:47:57;97385.34;;;7.69;100.00
60871;BME280;46714;50.118;14.462;2023-10-19T09:50:30;97393.94;;;7.78;100.00
60871;BME280;46714;50.118;14.462;2023-10-19T09:52:56;97388.47;;;7.89;100.00
60871;BME280;46714;50.118;14.462;2023-10-19T09:55:31;97386.78;;;8.00;100.00
60871;BME280;46714;50.118;14.462;2023-10-19T09:58:06;97376.38;;;8.09;100.00
60871;BME280;46714;50.118;14.462;2023-10-19T10:00:42;97378.25;;;8.08;100.00
60871;BME280;46714;50.118;14.462;2023-10-19T10:03:26;97383.34;;;8.05;100.00
60871;BME280;46714;50.118;14.462;2023-10-19T10:06:07;97370.13;;;8.08;100.00
60871;BME280;46714;50.118;14.462;2023-10-19T10:08:35;97365.88;;;8.12;100.00
60871;BME280;46714;50.118;14.462;2023-10-19T10:11:23;97358.56;;;8.13;100.00
60871;BME280;46714;50.118;14.462;2023-10-19T10:13:51;97363.97;;;8.13;100.00
60871;BME280;46714;50.118;14.462;2023-10-19T10:16:18;97361.97;;;8.20;100.00
60871;BME280;46714;50.118;14.462;2023-10-19T10:18:49;97359.91;;;8.27;100.00
60871;BME280;46714;50.118;14.462;2023-10-19T10:26:14;97336.94;;;8.47;100.00
60871;BME280;46714;50.118;14.462;2023-10-19T10:28:41;97347.31;;;8.50;100.00
60871;BME280;46714;50.118;14.462;2023-10-19T10:31:21;97344.41;;;8.56;100.00
60871;BME280;46714;50.118;14.462;2023-10-19T10:33:51;97344.81;;;8.65;100.00
60871;BME280;46714;50.118;14.462;2023-10-19T10:36:19;97341.72;;;8.73;100.00
60871;BME280;46714;50.118;14.462;2023-10-19T10:38:46;97342.88;;;8.77;100.00
60871;BME280;46714;50.118;14.462;2023-10-19T10:41:19;97342.19;;;8.87;99.34
60871;BME280;46714;50.118;14.462;2023-10-19T10:43:52;97339.88;;;8.96;99.51
60871;BME280;46714;50.118;14.462;2023-10-19T10:46:19;97338.09;;;9.07;99.79
60871;BME280;46714;50.118;14.462;2023-10-19T10:48:47;97331.44;;;9.14;99.97
60871;BME280;46714;50.118;14.462;2023-10-19T10:51:25;97329.31;;;9.16;98.06
60871;BME280;46714;50.118;14.462;2023-10-19T10:53:55;97319.25;;;9.17;98.28
60871;BME280;46714;50.118;14.462;2023-10-19T10:56:22;97330.50;;;9.26;99.69
60871;BME280;46714;50.118;14.462;2023-10-19T10:58:49;97316.59;;;9.22;97.42
60871;BME280;46714;50.118;14.462;2023-10-19T11:01:15;97308.41;;;9.17;97.40
60871;BME280;46714;50.118;14.462;2023-10-19T11:04:04;97305.41;;;9.18;97.51
60871;BME280;46714;50.118;14.462;2023-10-19T11:06:50;97297.59;;;9.22;98.32
60871;BME280;46714;50.118;14.462;2023-10-19T11:09:18;97300.94;;;9.29;97.44
60871;BME280;46714;50.118;14.462;2023-10-19T11:11:44;97302.09;;;9.33;97.50
60871;BME280;46714;50.118;14.462;2023-10-19T11:14:10;97292.84;;;9.34;97.32
60871;BME280;46714;50.118;14.462;2023-10-19T11:16:36;97290.72;;;9.36;97.13
60871;BME280;46714;50.118;14.462;2023-10-19T11:19:04;97284.47;;;9.36;96.43
60871;BME280;46714;50.118;14.462;2023-10-19T11:21:30;97283.47;;;9.42;97.72
60871;BME280;46714;50.118;14.462;2023-10-19T11:23:55;97283.50;;;9.47;97.68
60871;BME280;46714;50.118;14.462;2023-10-19T11:26:23;97276.44;;;9.46;96.55
60871;BME280;46714;50.118;14.462;2023-10-19T11:28:59;97273.75;;;9.46;96.64
60871;BME280;46714;50.118;14.462;2023-10-19T11:31:26;97271.56;;;9.48;96.77
60871;BME280;46714;50.118;14.462;2023-10-19T11:33:53;97265.38;;;9.53;96.56
60871;BME280;46714;50.118;14.462;2023-10-19T11:36:23;97254.81;;;9.56;96.71
60871;BME280;46714;50.118;14.462;2023-10-19T11:38:50;97254.38;;;9.64;97.20
60871;BME280;46714;50.118;14.462;2023-10-19T11:41:17;97255.81;;;9.72;97.25
60871;BME280;46714;50.118;14.462;2023-10-19T11:43:44;97265.91;;;9.77;95.87
60871;BME280;46714;50.118;14.462;2023-10-19T11:46:11;97262.47;;;9.86;95.75
60871;BME280;46714;50.118;14.462;2023-10-19T11:48:37;97263.03;;;9.89;94.96
60871;BME280;46714;50.118;14.462;2023-10-19T11:51:04;97259.00;;;9.96;95.11
60871;BME280;46714;50.118;14.462;2023-10-19T11:53:31;97260.47;;;10.04;95.65
60871;BME280;46714;50.118;14.462;2023-10-19T11:56:08;97253.94;;;10.05;94.68
60871;BME280;46714;50.118;14.462;2023-10-19T11:58:35;97253.03;;;9.94;92.98
60871;BME280;46714;50.118;14.462;2023-10-19T12:01:02;97253.28;;;9.93;93.53
60871;BME280;46714;50.118;14.462;2023-10-19T12:03:40;97260.09;;;9.95;94.79
60871;BME280;46714;50.118;14.462;2023-10-19T12:06:10;97250.34;;;9.99;96.74
60871;BME280;46714;50.118;14.462;2023-10-19T12:08:37;97250.41;;;10.04;95.91
60871;BME280;46714;50.118;14.462;2023-10-19T12:11:04;97245.78;;;10.05;94.09
60871;BME280;46714;50.118;14.462;2023-10-19T12:13:40;97245.53;;;10.06;93.68
60871;BME280;46714;50.118;14.462;2023-10-19T12:16:06;97235.25;;;10.14;94.40
60871;BME280;46714;50.118;14.462;2023-10-19T12:18:32;97244.78;;;10.16;94.00
60871;BME280;46714;50.118;14.462;2023-10-19T12:20:57;97246.44;;;10.17;93.17
60871;BME280;46714;50.118;14.462;2023-10-19T12:23:25;97239.09;;;10.18;93.66
60871;BME280;46714;50.118;14.462;2023-10-19T12:25:51;97242.97;;;10.27;93.06
60871;BME280;46714;50.118;14.462;2023-10-19T12:28:16;97236.00;;;10.36;94.30
60871;BME280;46714;50.118;14.462;2023-10-19T12:30:42;97237.69;;;10.42;92.31
60871;BME280;46714;50.118;14.462;2023-10-19T12:33:08;97241.25;;;10.48;92.34
60871;BME280;46714;50.118;14.462;2023-10-19T12:35:37;97235.59;;;10.60;92.88
60871;BME280;46714;50.118;14.462;2023-10-19T12:38:22;97237.88;;;10.73;94.32
60871;BME280;46714;50.118;14.462;2023-10-19T12:40:47;97245.25;;;10.83;92.27
60871;BME280;46714;50.118;14.462;2023-10-19T12:43:15;97234.94;;;10.90;90.95
60871;BME280;46714;50.118;14.462;2023-10-19T12:45:41;97243.97;;;10.90;90.66
60871;BME280;46714;50.118;14.462;2023-10-19T12:48:08;97237.13;;;10.88;88.58
60871;BME280;46714;50.118;14.462;2023-10-19T12:50:36;97234.13;;;10.89;90.64
60871;BME280;46714;50.118;14.462;2023-10-19T12:53:02;97223.81;;;10.92;91.33
60871;BME280;46714;50.118;14.462;2023-10-19T12:55:28;97226.53;;;10.92;90.20
60871;BME280;46714;50.118;14.462;2023-10-19T12:57:55;97222.13;;;10.85;91.11
60871;BME280;46714;50.118;14.462;2023-10-19T13:00:31;97219.69;;;10.84;90.87
60871;BME280;46714;50.118;14.462;2023-10-19T13:03:04;97216.69;;;10.85;89.59
60871;BME280;46714;50.118;14.462;2023-10-19T13:07:59;97203.63;;;10.87;90.64
60871;BME280;46714;50.118;14.462;2023-10-19T13:10:28;97193.88;;;10.92;90.39
60871;BME280;46714;50.118;14.462;2023-10-19T13:13:07;97189.53;;;11.01;90.62
60871;BME280;46714;50.118;14.462;2023-10-19T13:15:35;97192.59;;;11.09;90.25